Time,TemperatureF,DewpointF,PressureIn,WindDirection,WindDirectionDegrees,WindSpeedMPH,WindSpeedGustMPH,Humidity,HourlyPrecipIn,Conditions,Clouds,dailyrainin,SoftwareType,DateUTC
2016-12-08 00:00:00,59.7,59.7,30.08,SSE,165,0.0,0.0,100,0.00,,,0.00,TxWx,2016-12-08 05:00:00,
2016-12-08 00:05:00,59.6,59.6,30.08,SSE,164,0.0,0.0,100,0.00,,,0.00,TxWx,2016-12-08 05:05:00,
2016-12-08 00:10:00,59.4,59.4,30.08,SSE,165,0.0,0.0,100,0.00,,,0.00,TxWx,2016-12-08 05:10:00,
2016-12-08 00:15:00,59.3,59.3,30.08,SSE,165,0.0,0.0,100,0.00,,,0.00,TxWx,2016-12-08 05:15:00,
2016-12-08 00:20:00,59.1,59.1,30.07,SSE,165,0.0,0.0,100,0.00,,,0.00,TxWx,2016-12-08 05:20:00,
2016-12-08 00:25:00,59.0,59.0,30.07,SSE,165,0.0,0.0,100,0.00,,,0.00,TxWx,2016-12-08 05:25:00,
2016-12-08 00:30:00,58.8,58.8,30.07,SSE,165,0.0,0.0,100,0.00,,,0.00,TxWx,2016-12-08 05:30:00,
2016-12-08 00:35:00,58.5,58.5,30.07,SSE,165,0.0,0.0,100,0.00,,,0.00,TxWx,2016-12-08 05:35:00,
2016-12-08 00:40:00,58.4,58.4,30.07,SSE,165,0.0,0.0,100,0.00,,,0.00,TxWx,2016-12-08 05:40:00,
2016-12-08 00:45:00,58.3,58.3,30.07,SSE,165,0.0,0.0,100,0.00,,,0.00,TxWx,2016-12-08 05:45:00,
2016-12-08 00:50:00,58.2,58.2,30.07,SSE,165,0.0,0.0,100,0.00,,,0.00,TxWx,2016-12-08 05:50:00,
2016-12-08 00:55:00,58.4,58.4,30.06,SSE,164,0.0,0.0,100,0.00,,,0.00,TxWx,2016-12-08 05:55:00,
2016-12-08 01:00:00,58.5,58.5,30.06,SSE,164,0.0,0.0,100,0.00,,,0.00,TxWx,2016-12-08 06:00:00,
2016-12-08 01:05:00,58.4,58.4,30.06,SSW,204,2.2,2.2,100,0.00,,,0.00,TxWx,2016-12-08 06:05:00,
2016-12-08 01:10:00,58.1,58.1,30.07,WSW,254,5.5,5.5,100,0.00,,,0.00,TxWx,2016-12-08 06:10:00,
2016-12-08 01:15:00,58.2,58.2,30.07,SW,224,0.0,0.0,100,0.00,,,0.00,TxWx,2016-12-08 06:15:00,
2016-12-08 01:20:00,58.1,58.1,30.07,WSW,243,2.4,3.0,100,0.00,,,0.00,TxWx,2016-12-08 06:20:00,
2016-12-08 01:25:00,58.1,58.1,30.07,West,261,0.7,1.0,100,0.00,,,0.00,TxWx,2016-12-08 06:25:00,
2016-12-08 01:30:00,58.4,58.4,30.07,WNW,302,2.0,2.0,100,0.00,,,0.00,TxWx,2016-12-08 06:30:00,
2016-12-08 01:35:00,58.5,58.5,30.07,West,266,0.0,0.0,100,0.00,,,0.00,TxWx,2016-12-08 06:35:00,
2016-12-08 01:40:00,58.4,58.4,30.07,WNW,291,0.0,0.0,100,0.00,,,0.00,TxWx,2016-12-08 06:40:00,
2016-12-08 01:45:00,58.7,58.7,30.07,WNW,301,2.6,3.0,100,0.00,,,0.00,TxWx,2016-12-08 06:45:00,
2016-12-08 01:50:00,58.6,58.6,30.07,NW,308,4.6,4.6,100,0.00,,,0.00,TxWx,2016-12-08 06:50:00,
2016-12-08 01:55:00,59.0,59.0,30.07,NW,312,2.6,3.0,100,0.00,,,0.00,TxWx,2016-12-08 06:55:00,
2016-12-08 02:00:00,59.1,59.1,30.07,NW,312,3.9,3.9,100,0.00,,,0.00,TxWx,2016-12-08 07:00:00,
2016-12-08 02:05:00,59.0,59.0,30.07,WNW,286,2.0,2.0,100,0.00,,,0.00,TxWx,2016-12-08 07:05:00,
2016-12-08 02:10:00,58.7,58.7,30.07,WNW,285,0.0,0.0,100,0.00,,,0.00,TxWx,2016-12-08 07:10:00,
2016-12-08 02:15:00,59.0,59.0,30.07,NW,306,3.7,3.7,100,0.00,,,0.00,TxWx,2016-12-08 07:15:00,
2016-12-08 02:20:00,58.7,58.7,30.07,WSW,258,2.6,2.6,100,0.00,,,0.00,TxWx,2016-12-08 07:20:00,
2016-12-08 02:25:00,58.8,58.8,30.07,West,281,3.2,3.2,100,0.00,,,0.00,TxWx,2016-12-08 07:25:00,
2016-12-08 02:30:00,58.8,58.8,30.07,WNW,289,4.2,5.0,100,0.00,,,0.00,TxWx,2016-12-08 07:30:00,
2016-12-08 02:35:00,58.9,58.9,30.07,NW,305,5.7,5.7,100,0.00,,,0.00,TxWx,2016-12-08 07:35:00,
2016-12-08 02:40:00,58.7,58.7,30.07,WNW,290,5.7,5.7,100,0.00,,,0.00,TxWx,2016-12-08 07:40:00,
2016-12-08 02:45:00,58.6,58.6,30.07,WNW,284,3.9,3.9,100,0.00,,,0.00,TxWx,2016-12-08 07:45:00,
2016-12-08 02:50:00,58.6,58.6,30.07,WSW,240,2.4,2.4,100,0.00,,,0.00,TxWx,2016-12-08 07:50:00,